createdAt,value
2022-09-23T00:01:22.638Z,5.20
2022-09-23T00:03:51.428Z,5.20
2022-09-23T00:06:22.508Z,5.20
2022-09-23T00:08:52.052Z,5.20
2022-09-23T00:11:23.096Z,5.20
2022-09-23T00:13:53.597Z,5.10
2022-09-23T00:16:26.059Z,5.10
2022-09-23T00:18:54.804Z,5.10
2022-09-23T00:21:25.215Z,5.20
2022-09-23T00:23:54.467Z,5.20
2022-09-23T00:26:24.317Z,5.20
2022-09-23T00:28:53.255Z,5.20
2022-09-23T00:31:25.048Z,5.20
2022-09-23T00:33:57.996Z,5.20
2022-09-23T00:36:27.794Z,5.20
2022-09-23T00:38:56.714Z,5.10
2022-09-23T00:41:26.170Z,5.10
2022-09-23T00:43:57.141Z,5.00
2022-09-23T00:46:32.421Z,5.00
2022-09-23T00:49:05.592Z,5.00
2022-09-23T00:51:38.800Z,4.90
2022-09-23T00:54:07.779Z,4.90
2022-09-23T00:56:38.004Z,4.90
2022-09-23T00:59:07.418Z,4.90
2022-09-23T01:01:38.612Z,4.90
2022-09-23T01:04:08.607Z,4.90
2022-09-23T01:06:37.446Z,4.80
2022-09-23T01:09:06.484Z,4.80
2022-09-23T01:11:46.129Z,4.80
2022-09-23T01:14:32.240Z,4.70
2022-09-23T01:17:08.826Z,4.60
2022-09-23T01:20:00.923Z,4.60
2022-09-23T01:22:36.974Z,4.60
2022-09-23T01:25:24.650Z,4.60
2022-09-23T01:28:07.519Z,4.60
2022-09-23T01:30:46.011Z,4.60
2022-09-23T01:33:22.120Z,4.50
2022-09-23T01:36:11.420Z,4.60
2022-09-23T01:38:45.397Z,4.60
2022-09-23T01:41:38.088Z,4.60
2022-09-23T01:44:10.292Z,4.60
2022-09-23T01:46:45.882Z,4.50
2022-09-23T01:49:26.820Z,4.50
2022-09-23T01:52:01.366Z,4.50
2022-09-23T01:54:38.976Z,4.40
2022-09-23T01:57:13.123Z,4.30
2022-09-23T01:59:44.586Z,4.30
2022-09-23T02:02:19.471Z,4.20
2022-09-23T02:04:54.365Z,4.20
2022-09-23T02:07:29.555Z,4.10
2022-09-23T02:10:02.281Z,4.10
2022-09-23T02:12:35.509Z,4.10
2022-09-23T02:15:07.509Z,4.10
2022-09-23T02:17:42.683Z,4.00
2022-09-23T02:20:15.002Z,4.00
2022-09-23T02:22:49.948Z,4.00
2022-09-23T02:25:19.986Z,3.90
2022-09-23T02:27:56.949Z,3.90
2022-09-23T02:30:30.167Z,3.90
2022-09-23T02:33:07.197Z,3.90
2022-09-23T02:35:40.564Z,3.90
2022-09-23T02:38:19.337Z,3.80
2022-09-23T02:40:55.320Z,3.80
2022-09-23T02:43:35.575Z,3.80
2022-09-23T02:46:06.236Z,3.80
2022-09-23T02:48:41.476Z,3.70
2022-09-23T02:51:11.476Z,3.70
2022-09-23T02:53:40.396Z,3.80
2022-09-23T02:56:16.942Z,3.80
2022-09-23T02:58:47.099Z,3.80
2022-09-23T03:01:25.807Z,3.80
2022-09-23T03:04:07.056Z,3.80
2022-09-23T03:06:43.512Z,3.80
2022-09-23T03:09:20.793Z,3.70
2022-09-23T03:12:01.533Z,3.70
2022-09-23T03:14:39.226Z,3.70
2022-09-23T03:17:17.392Z,3.70
2022-09-23T03:19:51.846Z,3.70
2022-09-23T03:22:24.428Z,3.70
2022-09-23T03:24:54.339Z,3.60
2022-09-23T03:27:26.985Z,3.70
2022-09-23T03:29:56.604Z,3.60
2022-09-23T03:32:28.163Z,3.60
2022-09-23T03:35:00.684Z,3.60
2022-09-23T03:37:34.250Z,3.50
2022-09-23T03:40:10.537Z,3.50
2022-09-23T03:42:40.456Z,3.50
2022-09-23T03:45:13.154Z,3.50
2022-09-23T03:47:42.446Z,3.50
2022-09-23T03:50:13.564Z,3.50
2022-09-23T03:52:42.587Z,3.50
2022-09-23T03:55:12.348Z,3.50
2022-09-23T03:57:41.343Z,3.50
2022-09-23T04:00:12.190Z,3.50
2022-09-23T04:02:40.983Z,3.50
2022-09-23T04:05:10.728Z,3.40
2022-09-23T04:07:41.236Z,3.40
2022-09-23T04:10:11.357Z,3.40
2022-09-23T04:12:40.202Z,3.40
2022-09-23T04:15:09.728Z,3.30
2022-09-23T04:17:38.463Z,3.30
2022-09-23T04:20:08.136Z,3.30
2022-09-23T04:22:38.742Z,3.30
2022-09-23T04:25:10.579Z,3.30
2022-09-23T04:27:39.294Z,3.30
2022-09-23T04:30:09.029Z,3.40
2022-09-23T04:32:38.011Z,3.30
2022-09-23T04:35:08.475Z,3.30
2022-09-23T04:37:37.114Z,3.30
2022-09-23T04:40:06.517Z,3.30
2022-09-23T04:42:36.872Z,3.30
2022-09-23T04:45:06.131Z,3.30
2022-09-23T04:47:34.994Z,3.30
2022-09-23T04:50:03.760Z,3.30
2022-09-23T04:52:32.458Z,3.30
2022-09-23T04:55:01.640Z,3.30
2022-09-23T04:57:30.584Z,3.30
2022-09-23T05:00:00.908Z,3.40
2022-09-23T05:02:30.304Z,3.30
2022-09-23T05:04:59.052Z,3.30
2022-09-23T05:07:27.795Z,3.30
2022-09-23T05:09:56.372Z,3.30
2022-09-23T05:12:24.959Z,3.40
2022-09-23T05:14:53.632Z,3.30
2022-09-23T05:17:24.191Z,3.40
2022-09-23T05:19:52.827Z,3.40
2022-09-23T05:22:21.564Z,3.50
2022-09-23T05:24:50.322Z,3.50
2022-09-23T05:27:19.099Z,3.50
2022-09-23T05:29:48.942Z,3.50
2022-09-23T05:32:17.517Z,3.50
2022-09-23T05:34:47.711Z,3.60
2022-09-23T05:37:16.592Z,3.60
2022-09-23T05:39:45.247Z,3.70
2022-09-23T05:42:13.979Z,3.70
2022-09-23T05:44:42.594Z,3.80
2022-09-23T05:47:11.204Z,3.90
2022-09-23T05:49:58.660Z,4.00
2022-09-23T05:52:29.967Z,4.00
2022-09-23T05:54:58.721Z,4.10
2022-09-23T05:57:27.460Z,4.20
2022-09-23T05:59:56.091Z,4.30
2022-09-23T06:02:25.260Z,4.40
2022-09-23T06:04:54.015Z,4.50
2022-09-23T06:07:22.890Z,4.60
2022-09-23T06:09:55.409Z,4.70
2022-09-23T06:12:25.255Z,4.90
2022-09-23T06:14:54.437Z,5.00
2022-09-23T06:17:23.131Z,5.10
2022-09-23T06:19:51.927Z,5.30
2022-09-23T06:22:20.495Z,5.40
2022-09-23T06:24:49.127Z,5.50
2022-09-23T06:27:19.496Z,5.70
2022-09-23T06:29:48.284Z,5.80
2022-09-23T06:32:16.971Z,6.00
2022-09-23T06:34:51.579Z,6.10
2022-09-23T06:37:21.019Z,6.20
2022-09-23T06:39:49.955Z,6.40
2022-09-23T06:42:20.221Z,6.50
2022-09-23T06:44:48.918Z,6.60
2022-09-23T06:47:17.475Z,6.70
2022-09-23T06:49:46.187Z,6.90
2022-09-23T06:52:14.900Z,7.00
2022-09-23T06:54:43.533Z,7.10
2022-09-23T06:57:12.200Z,7.30
2022-09-23T06:59:43.130Z,7.40
2022-09-23T07:02:12.424Z,7.60
2022-09-23T07:04:41.151Z,7.70
2022-09-23T07:07:11.666Z,7.90
2022-09-23T07:09:40.453Z,8.00
2022-09-23T07:12:09.249Z,8.10
2022-09-23T07:14:37.951Z,8.30
2022-09-23T07:17:08.188Z,8.40
2022-09-23T07:19:36.898Z,8.60
2022-09-23T07:22:05.920Z,8.70
2022-09-23T07:24:35.122Z,8.90
2022-09-23T07:27:03.962Z,9.00
2022-09-23T07:29:44.643Z,9.20
2022-09-23T07:32:18.029Z,9.40
2022-09-23T07:34:47.303Z,9.50
2022-09-23T07:37:16.272Z,9.70
2022-09-23T07:39:45.301Z,9.90
2022-09-23T07:42:14.340Z,10.10
2022-09-23T07:44:45.447Z,10.30
2022-09-23T07:47:14.331Z,10.50
2022-09-23T07:49:44.598Z,10.70
2022-09-23T07:52:13.228Z,10.80
2022-09-23T07:54:42.013Z,11.00
2022-09-23T07:57:10.654Z,11.10
2022-09-23T07:59:39.699Z,11.30
2022-09-23T08:02:08.434Z,11.50
2022-09-23T08:04:37.123Z,11.60
2022-09-23T08:07:08.193Z,11.80
2022-09-23T08:09:41.554Z,11.90
2022-09-23T08:12:15.235Z,12.10
2022-09-23T08:14:45.073Z,12.30
2022-09-23T08:17:14.648Z,12.50
2022-09-23T08:19:43.242Z,12.70
2022-09-23T08:22:13.511Z,12.90
2022-09-23T08:24:42.221Z,13.20
2022-09-23T08:27:12.863Z,13.30
2022-09-23T08:29:41.472Z,13.50
2022-09-23T08:32:10.067Z,13.80
2022-09-23T08:34:38.711Z,14.00
2022-09-23T08:37:12.635Z,14.30
2022-09-23T08:39:41.409Z,14.40
2022-09-23T08:42:19.041Z,14.50
2022-09-23T08:44:51.866Z,14.60
2022-09-23T08:47:24.821Z,14.70
2022-09-23T08:50:00.456Z,14.80
2022-09-23T08:52:36.628Z,14.90
2022-09-23T08:55:06.271Z,15.00
2022-09-23T08:58:02.331Z,15.20
2022-09-23T09:00:42.106Z,15.30
2022-09-23T09:03:22.404Z,15.40
2022-09-23T09:05:54.391Z,15.60
2022-09-23T09:08:29.789Z,15.70
2022-09-23T09:11:00.199Z,15.80
2022-09-23T09:13:32.724Z,16.00
2022-09-23T09:16:36.358Z,16.00
2022-09-23T09:19:19.580Z,16.20
2022-09-23T09:21:52.744Z,16.20
2022-09-23T09:24:28.341Z,16.30
2022-09-23T09:26:57.088Z,16.40
2022-09-23T09:29:36.961Z,16.40
2022-09-23T09:32:18.060Z,16.60
2022-09-23T09:34:54.820Z,16.80
2022-09-23T09:37:31.655Z,17.00
2022-09-23T09:40:02.266Z,17.20
2022-09-23T09:42:40.093Z,17.40
2022-09-23T09:45:20.054Z,17.50
2022-09-23T09:47:53.199Z,17.70
2022-09-23T09:50:44.199Z,17.70
2022-09-23T09:53:25.396Z,17.80
2022-09-23T09:56:05.908Z,17.90
2022-09-23T09:58:44.020Z,18.10
2022-09-23T10:01:23.851Z,18.10
2022-09-23T10:03:57.042Z,18.20
2022-09-23T10:06:30.023Z,18.30
2022-09-23T10:09:12.096Z,18.30
2022-09-23T10:11:42.660Z,18.40
2022-09-23T10:14:19.066Z,18.60
2022-09-23T10:16:49.121Z,18.70
2022-09-23T10:19:27.011Z,18.80
2022-09-23T10:22:00.396Z,19.00
2022-09-23T10:24:32.454Z,19.10
2022-09-23T10:27:07.807Z,19.10
2022-09-23T10:29:40.376Z,19.20
2022-09-23T10:32:26.963Z,19.20
2022-09-23T10:34:58.789Z,19.30
2022-09-23T10:37:41.522Z,19.30
2022-09-23T10:40:40.862Z,19.30
2022-09-23T10:43:49.591Z,19.40
2022-09-23T10:46:39.539Z,19.50
2022-09-23T10:49:45.586Z,19.60
2022-09-23T10:52:27.917Z,19.90
2022-09-23T10:55:08.867Z,20.10
2022-09-23T10:57:52.319Z,20.10
2022-09-23T11:00:34.757Z,20.00
2022-09-23T11:03:32.286Z,20.10
2022-09-23T11:06:11.428Z,20.10
2022-09-23T11:09:01.516Z,20.10
2022-09-23T11:11:39.510Z,20.20
2022-09-23T11:14:28.994Z,20.20
2022-09-23T11:17:22.034Z,20.30
2022-09-23T11:20:10.877Z,20.50
2022-09-23T11:22:53.626Z,20.60
2022-09-23T11:25:33.416Z,20.90
2022-09-23T11:28:32.932Z,21.00
2022-09-23T11:31:08.074Z,21.10
2022-09-23T11:33:52.976Z,21.00
2022-09-23T11:36:28.078Z,20.90
2022-09-23T11:39:00.473Z,21.00
2022-09-23T11:41:31.897Z,21.00
2022-09-23T11:44:08.580Z,21.10
2022-09-23T11:46:41.579Z,21.00
2022-09-23T11:49:17.120Z,21.10
2022-09-23T11:51:57.649Z,21.20
2022-09-23T11:54:32.215Z,21.30
2022-09-23T11:57:05.507Z,21.30
2022-09-23T11:59:41.234Z,21.30
2022-09-23T12:02:22.948Z,21.30
2022-09-23T12:05:03.138Z,21.30
2022-09-23T12:07:44.412Z,21.30
2022-09-23T12:10:13.617Z,21.20
2022-09-23T12:12:52.760Z,21.20
2022-09-23T12:15:36.268Z,21.10
2022-09-23T12:18:22.938Z,21.20
2022-09-23T12:21:45.802Z,21.30
2022-09-23T12:24:24.794Z,21.50
2022-09-23T12:26:56.938Z,21.60
2022-09-23T12:31:57.601Z,21.70
2022-09-23T12:34:31.291Z,21.70
2022-09-23T12:37:05.789Z,21.80
2022-09-23T12:39:37.440Z,21.80
2022-09-23T12:42:12.363Z,21.80
2022-09-23T12:44:44.210Z,21.80
2022-09-23T12:47:39.420Z,21.80
2022-09-23T12:50:45.322Z,21.70
2022-09-23T12:53:54.247Z,21.70
2022-09-23T12:56:27.887Z,21.50
2022-09-23T12:59:11.549Z,21.30
2022-09-23T13:01:41.134Z,21.10
2022-09-23T13:04:51.054Z,21.00
2022-09-23T13:07:23.830Z,21.00
2022-09-23T13:09:54.405Z,21.10
2022-09-23T13:12:29.489Z,21.20
2022-09-23T13:15:00.825Z,21.20
2022-09-23T13:17:33.895Z,21.20
2022-09-23T13:20:06.454Z,21.20
2022-09-23T13:22:57.214Z,21.20
2022-09-23T13:25:28.632Z,21.30
2022-09-23T13:28:02.880Z,21.30
2022-09-23T13:30:31.498Z,21.30
2022-09-23T13:33:11.134Z,21.30
2022-09-23T13:35:43.397Z,21.30
2022-09-23T13:38:13.103Z,21.30
2022-09-23T13:40:45.078Z,21.40
2022-09-23T13:43:26.905Z,21.40
2022-09-23T13:45:55.942Z,21.50
2022-09-23T13:48:26.946Z,21.50
2022-09-23T13:50:56.180Z,21.60
2022-09-23T13:53:28.943Z,21.60
2022-09-23T13:56:03.016Z,21.50
2022-09-23T13:58:34.803Z,21.40
2022-09-23T14:01:03.759Z,21.30
2022-09-23T14:03:36.464Z,21.30
2022-09-23T14:06:10.059Z,21.30
2022-09-23T14:08:40.993Z,21.30
2022-09-23T14:11:15.472Z,21.30
2022-09-23T14:13:47.362Z,21.30
2022-09-23T14:16:17.342Z,21.20
2022-09-23T14:18:47.776Z,21.20
2022-09-23T14:21:28.435Z,21.20
2022-09-23T14:23:57.382Z,21.20
2022-09-23T14:26:27.352Z,21.10
2022-09-23T14:28:58.319Z,21.10
2022-09-23T14:31:27.051Z,21.20
2022-09-23T14:33:56.011Z,21.20
2022-09-23T14:36:41.943Z,21.20
2022-09-23T14:39:13.352Z,21.20
2022-09-23T14:41:45.477Z,21.20
2022-09-23T14:44:23.614Z,21.30
2022-09-23T14:46:57.479Z,21.30
2022-09-23T14:49:26.985Z,21.40
2022-09-23T14:51:59.231Z,21.50
2022-09-23T14:54:35.838Z,21.50
2022-09-23T14:57:19.504Z,21.50
2022-09-23T14:59:54.889Z,21.50
2022-09-23T15:02:33.012Z,21.60
2022-09-23T15:05:16.845Z,21.60
2022-09-23T15:07:50.008Z,21.50
2022-09-23T15:10:23.750Z,21.50
2022-09-23T15:12:53.954Z,21.40
2022-09-23T15:15:28.150Z,21.30
2022-09-23T15:17:57.128Z,21.20
2022-09-23T15:20:28.231Z,21.10
2022-09-23T15:22:57.613Z,21.00
2022-09-23T15:25:29.340Z,20.90
2022-09-23T15:28:04.331Z,20.80
2022-09-23T15:30:38.259Z,20.60
2022-09-23T15:33:09.209Z,20.50
2022-09-23T15:35:38.053Z,20.50
2022-09-23T15:38:06.710Z,20.40
2022-09-23T15:40:37.339Z,20.30
2022-09-23T15:43:20.585Z,20.30
2022-09-23T15:45:53.831Z,20.30
2022-09-23T15:48:25.731Z,20.30
2022-09-23T15:50:55.402Z,20.30
2022-09-23T15:53:26.151Z,20.30
2022-09-23T15:55:55.364Z,20.20
2022-09-23T15:58:26.114Z,20.10
2022-09-23T16:00:57.568Z,20.00
2022-09-23T16:03:28.787Z,19.80
2022-09-23T16:06:02.490Z,19.60
2022-09-23T16:08:33.355Z,19.60
2022-09-23T16:11:02.207Z,19.40
2022-09-23T16:13:30.738Z,19.30
2022-09-23T16:16:00.994Z,19.10
2022-09-23T16:18:29.863Z,19.00
2022-09-23T16:20:59.521Z,18.90
2022-09-23T16:23:38.739Z,18.80
2022-09-23T16:26:14.055Z,18.80
2022-09-23T16:28:42.779Z,18.60
2022-09-23T16:31:16.066Z,18.40
2022-09-23T16:33:45.357Z,18.30
2022-09-23T16:36:18.796Z,18.20
2022-09-23T16:38:47.489Z,18.00
2022-09-23T16:41:16.426Z,17.90
2022-09-23T16:43:45.150Z,17.70
2022-09-23T16:46:16.867Z,17.60
2022-09-23T16:48:52.078Z,17.40
2022-09-23T16:51:23.176Z,17.30
2022-09-23T16:53:52.936Z,17.10
2022-09-23T16:56:28.277Z,17.00
2022-09-23T16:58:57.769Z,16.90
2022-09-23T17:01:47.199Z,16.70
2022-09-23T17:04:18.584Z,16.50
2022-09-23T17:06:50.394Z,16.40
2022-09-23T17:09:20.455Z,16.20
2022-09-23T17:11:56.474Z,16.10
2022-09-23T17:14:25.003Z,16.00
2022-09-23T17:16:55.054Z,15.90
2022-09-23T17:19:23.755Z,15.70
2022-09-23T17:21:54.056Z,15.60
2022-09-23T17:24:22.904Z,15.50
2022-09-23T17:26:53.261Z,15.30
2022-09-23T17:29:22.419Z,15.20
2022-09-23T17:31:51.144Z,15.00
2022-09-23T17:34:21.364Z,14.90
2022-09-23T17:36:50.105Z,14.70
2022-09-23T17:39:19.042Z,14.50
2022-09-23T17:41:47.818Z,14.40
2022-09-23T17:44:17.780Z,14.20
2022-09-23T17:46:47.261Z,14.10
2022-09-23T17:49:16.069Z,14.00
2022-09-23T17:51:46.266Z,13.80
2022-09-23T17:54:16.358Z,13.70
2022-09-23T17:56:45.151Z,13.70
2022-09-23T17:59:14.180Z,13.60
2022-09-23T18:01:42.849Z,13.50
2022-09-23T18:04:11.563Z,13.40
2022-09-23T18:06:40.194Z,13.30
2022-09-23T18:09:10.515Z,13.30
2022-09-23T18:11:41.167Z,13.20
2022-09-23T18:14:15.397Z,13.10
2022-09-23T18:16:46.084Z,13.00
2022-09-23T18:19:16.439Z,12.90
2022-09-23T18:21:48.041Z,12.90
2022-09-23T18:24:31.779Z,12.80
2022-09-23T18:27:01.577Z,12.70
2022-09-23T18:29:30.267Z,12.60
2022-09-23T18:31:59.550Z,12.50
2022-09-23T18:34:28.692Z,12.30
2022-09-23T18:36:57.313Z,12.30
2022-09-23T18:39:27.836Z,12.20
2022-09-23T18:41:56.441Z,12.10
2022-09-23T18:44:25.154Z,12.00
2022-09-23T18:46:53.783Z,12.00
2022-09-23T18:49:40.185Z,11.90
2022-09-23T18:52:08.858Z,11.80
2022-09-23T18:54:38.952Z,11.70
2022-09-23T18:57:07.832Z,11.60
2022-09-23T18:59:36.496Z,11.60
2022-09-23T19:02:05.269Z,11.50
2022-09-23T19:04:34.098Z,11.40
2022-09-23T19:07:02.900Z,11.30
2022-09-23T19:09:31.569Z,11.30
2022-09-23T19:12:02.697Z,11.30
2022-09-23T19:14:31.311Z,11.20
2022-09-23T19:16:59.838Z,11.20
2022-09-23T19:19:30.346Z,11.20
2022-09-23T19:21:59.076Z,11.10
2022-09-23T19:24:28.382Z,11.20
2022-09-23T19:26:57.188Z,11.10
2022-09-23T19:29:27.448Z,11.10
2022-09-23T19:31:56.274Z,11.00
2022-09-23T19:34:26.163Z,10.90
2022-09-23T19:36:57.501Z,10.90
2022-09-23T19:39:27.812Z,10.80
2022-09-23T19:41:57.018Z,10.80
2022-09-23T19:44:27.760Z,10.70
2022-09-23T19:46:57.421Z,10.60
2022-09-23T19:49:26.666Z,10.60
2022-09-23T19:51:57.090Z,10.50
2022-09-23T19:54:27.591Z,10.50
2022-09-23T19:56:56.849Z,10.40
2022-09-23T19:59:28.294Z,10.40
2022-09-23T20:01:57.128Z,10.40
2022-09-23T20:04:26.296Z,10.40
2022-09-23T20:06:55.062Z,10.40
2022-09-23T20:09:23.776Z,10.40
2022-09-23T20:11:52.431Z,10.50
2022-09-23T20:14:22.779Z,10.50
2022-09-23T20:16:53.255Z,10.50
2022-09-23T20:19:21.993Z,10.50
2022-09-23T20:22:11.083Z,10.60
2022-09-23T20:24:39.704Z,10.60
2022-09-23T20:27:10.780Z,10.60
2022-09-23T20:29:39.625Z,10.60
2022-09-23T20:32:11.416Z,10.60
2022-09-23T20:34:40.287Z,10.60
2022-09-23T20:37:10.894Z,10.60
2022-09-23T20:39:39.570Z,10.60
2022-09-23T20:42:09.479Z,10.60
2022-09-23T20:44:38.243Z,10.50
2022-09-23T20:47:07.185Z,10.50
2022-09-23T20:49:37.871Z,10.50
2022-09-23T20:52:06.607Z,10.50
2022-09-23T20:54:39.007Z,10.50
2022-09-23T20:57:07.896Z,10.40
2022-09-23T20:59:37.173Z,10.40
2022-09-23T21:02:06.762Z,10.40
2022-09-23T21:04:36.949Z,10.40
2022-09-23T21:07:05.593Z,10.40
2022-09-23T21:09:34.245Z,10.40
2022-09-23T21:12:03.302Z,10.40
2022-09-23T21:14:32.985Z,10.40
2022-09-23T21:17:01.676Z,10.40
2022-09-23T21:19:30.470Z,10.40
2022-09-23T21:22:00.676Z,10.40
2022-09-23T21:27:18.651Z,10.30
2022-09-23T21:29:47.349Z,10.30
2022-09-23T21:32:16.131Z,10.30
2022-09-23T21:34:44.875Z,10.30
2022-09-23T21:37:15.003Z,10.20
2022-09-23T21:40:03.841Z,10.20
2022-09-23T21:42:32.558Z,10.10
2022-09-23T21:45:01.951Z,10.10
2022-09-23T21:47:31.384Z,10.10
2022-09-23T21:50:00.989Z,10.10
2022-09-23T21:52:31.154Z,10.10
2022-09-23T21:54:59.724Z,10.10
2022-09-23T21:57:31.726Z,10.10
2022-09-23T22:00:00.276Z,10.10
2022-09-23T22:02:28.950Z,10.10
2022-09-23T22:04:57.694Z,10.10
2022-09-23T22:07:26.731Z,10.10
2022-09-23T22:09:56.824Z,10.00
2022-09-23T22:12:25.500Z,10.00
2022-09-23T22:14:54.112Z,10.00
2022-09-23T22:17:23.167Z,10.00
2022-09-23T22:19:51.760Z,9.90
2022-09-23T22:22:20.636Z,9.90
2022-09-23T22:24:49.824Z,9.90
2022-09-23T22:27:21.174Z,9.90
2022-09-23T22:30:07.026Z,9.90
2022-09-23T22:32:43.554Z,9.90
2022-09-23T22:35:16.650Z,10.00
2022-09-23T22:37:46.127Z,10.00
2022-09-23T22:40:16.574Z,9.90
2022-09-23T22:42:48.647Z,9.90
2022-09-23T22:45:17.425Z,9.90
2022-09-23T22:47:46.266Z,9.90
2022-09-23T22:50:15.821Z,9.90
2022-09-23T22:52:44.468Z,9.80
2022-09-23T22:55:13.757Z,9.80
2022-09-23T22:57:42.388Z,9.80
2022-09-23T23:00:13.751Z,9.80
2022-09-23T23:02:42.691Z,9.80
2022-09-23T23:05:11.982Z,9.90
2022-09-23T23:07:40.676Z,9.80
2022-09-23T23:10:10.464Z,9.80
2022-09-23T23:12:39.721Z,9.90
2022-09-23T23:15:12.921Z,9.90
2022-09-23T23:17:43.618Z,9.90
2022-09-23T23:20:12.515Z,9.90
2022-09-23T23:22:41.274Z,9.90
2022-09-23T23:25:10.904Z,9.90
2022-09-23T23:27:39.592Z,9.90
2022-09-23T23:30:09.771Z,9.90
2022-09-23T23:32:38.659Z,9.90
2022-09-23T23:35:09.849Z,9.90
2022-09-23T23:37:38.616Z,9.80
2022-09-23T23:40:08.455Z,9.80
2022-09-23T23:42:37.125Z,9.80
2022-09-23T23:45:06.586Z,9.80
2022-09-23T23:47:35.870Z,9.70
2022-09-23T23:50:05.696Z,9.70
2022-09-23T23:52:35.944Z,9.70
2022-09-23T23:55:04.868Z,9.70
2022-09-23T23:57:33.470Z,9.60
